Terminal Aerodrome Forecast
Issued by NWS Sterling, VA

Current Version | Previous Version | Text Only | Print | Product List | Glossary Off
Versions: 1 2 3 4 5 6 7 8 9 10 11 12 13 14 15 16 17 18 19 20 21

000
FTUS41 KLWX 312300 RRA
TAFIAD
TAF
KIAD 312346Z 0100/0206 31004KT P6SM FEW250
     FM011100 17004KT P6SM OVC050
     FM012200 12005KT 5SM -RASN OVC030=

USA.gov is the U.S. government's official web portal to all federal, state and local government web resources and services.